sensor_id;sensor_type;location;lat;lon;timestamp;P1;durP1;ratioP1;P2;durP2;ratioP2
67819;SDS011;54618;52.018;5.576;2023-02-25T00:01:52;2.65;;;0.95;;
67819;SDS011;54618;52.018;5.576;2023-02-25T00:04:19;4.93;;;1.27;;
67819;SDS011;54618;52.018;5.576;2023-02-25T00:06:46;3.58;;;1.10;;
67819;SDS011;54618;52.018;5.576;2023-02-25T00:09:12;4.38;;;1.10;;
67819;SDS011;54618;52.018;5.576;2023-02-25T00:11:37;4.10;;;1.10;;
67819;SDS011;54618;52.018;5.576;2023-02-25T00:14:03;3.08;;;1.00;;
67819;SDS011;54618;52.018;5.576;2023-02-25T00:16:28;5.35;;;1.20;;
67819;SDS011;54618;52.018;5.576;2023-02-25T00:18:54;4.85;;;1.17;;
67819;SDS011;54618;52.018;5.576;2023-02-25T00:21:21;5.13;;;1.35;;
67819;SDS011;54618;52.018;5.576;2023-02-25T00:23:48;4.60;;;1.13;;
67819;SDS011;54618;52.018;5.576;2023-02-25T00:26:17;3.35;;;0.90;;
67819;SDS011;54618;52.018;5.576;2023-02-25T00:28:43;3.15;;;1.00;;
67819;SDS011;54618;52.018;5.576;2023-02-25T00:31:10;4.70;;;1.13;;
67819;SDS011;54618;52.018;5.576;2023-02-25T00:33:37;4.90;;;0.98;;
67819;SDS011;54618;52.018;5.576;2023-02-25T00:36:06;2.92;;;0.88;;
67819;SDS011;54618;52.018;5.576;2023-02-25T00:38:32;4.82;;;1.38;;
67819;SDS011;54618;52.018;5.576;2023-02-25T00:41:03;5.22;;;1.27;;
67819;SDS011;54618;52.018;5.576;2023-02-25T00:43:35;4.60;;;1.10;;
67819;SDS011;54618;52.018;5.576;2023-02-25T00:46:04;5.70;;;1.25;;
67819;SDS011;54618;52.018;5.576;2023-02-25T00:48:30;3.65;;;0.90;;
67819;SDS011;54618;52.018;5.576;2023-02-25T00:50:55;2.88;;;0.88;;
67819;SDS011;54618;52.018;5.576;2023-02-25T00:53:21;4.03;;;1.20;;
67819;SDS011;54618;52.018;5.576;2023-02-25T00:55:46;4.28;;;1.08;;
67819;SDS011;54618;52.018;5.576;2023-02-25T00:58:12;2.67;;;1.10;;
67819;SDS011;54618;52.018;5.576;2023-02-25T01:00:37;3.08;;;1.17;;
67819;SDS011;54618;52.018;5.576;2023-02-25T01:03:03;3.03;;;1.10;;
67819;SDS011;54618;52.018;5.576;2023-02-25T01:05:28;3.65;;;0.93;;
67819;SDS011;54618;52.018;5.576;2023-02-25T01:07:54;3.40;;;0.93;;
67819;SDS011;54618;52.018;5.576;2023-02-25T01:10:20;3.60;;;1.10;;
67819;SDS011;54618;52.018;5.576;2023-02-25T01:12:46;3.60;;;1.00;;
67819;SDS011;54618;52.018;5.576;2023-02-25T01:15:12;3.47;;;1.02;;
67819;SDS011;54618;52.018;5.576;2023-02-25T01:17:38;3.53;;;0.90;;
67819;SDS011;54618;52.018;5.576;2023-02-25T01:20:03;4.53;;;1.33;;
67819;SDS011;54618;52.018;5.576;2023-02-25T01:22:35;3.45;;;0.93;;
67819;SDS011;54618;52.018;5.576;2023-02-25T01:25:06;5.55;;;1.00;;
67819;SDS011;54618;52.018;5.576;2023-02-25T01:27:34;3.20;;;0.90;;
67819;SDS011;54618;52.018;5.576;2023-02-25T01:30:00;3.45;;;1.10;;
67819;SDS011;54618;52.018;5.576;2023-02-25T01:32:25;3.85;;;0.98;;
67819;SDS011;54618;52.018;5.576;2023-02-25T01:34:51;3.42;;;0.90;;
67819;SDS011;54618;52.018;5.576;2023-02-25T01:37:17;3.60;;;1.05;;
67819;SDS011;54618;52.018;5.576;2023-02-25T01:39:43;3.20;;;0.85;;
67819;SDS011;54618;52.018;5.576;2023-02-25T01:42:13;4.15;;;0.93;;
67819;SDS011;54618;52.018;5.576;2023-02-25T01:47:53;3.25;;;0.98;;
67819;SDS011;54618;52.018;5.576;2023-02-25T01:50:40;2.70;;;0.80;;
67819;SDS011;54618;52.018;5.576;2023-02-25T01:53:11;4.53;;;0.90;;
67819;SDS011;54618;52.018;5.576;2023-02-25T01:55:39;3.65;;;1.02;;
67819;SDS011;54618;52.018;5.576;2023-02-25T01:58:05;3.35;;;1.00;;
67819;SDS011;54618;52.018;5.576;2023-02-25T02:00:33;4.35;;;0.90;;
67819;SDS011;54618;52.018;5.576;2023-02-25T02:03:00;4.72;;;1.00;;
67819;SDS011;54618;52.018;5.576;2023-02-25T02:05:32;4.47;;;0.90;;
67819;SDS011;54618;52.018;5.576;2023-02-25T02:08:08;3.60;;;1.00;;
67819;SDS011;54618;52.018;5.576;2023-02-25T02:10:34;2.65;;;0.90;;
67819;SDS011;54618;52.018;5.576;2023-02-25T02:12:59;3.53;;;0.70;;
67819;SDS011;54618;52.018;5.576;2023-02-25T02:15:25;4.15;;;1.15;;
67819;SDS011;54618;52.018;5.576;2023-02-25T02:17:55;4.28;;;1.00;;
67819;SDS011;54618;52.018;5.576;2023-02-25T02:20:26;4.45;;;1.15;;
67819;SDS011;54618;52.018;5.576;2023-02-25T02:23:10;3.00;;;0.90;;
67819;SDS011;54618;52.018;5.576;2023-02-25T02:26:05;3.08;;;0.88;;
67819;SDS011;54618;52.018;5.576;2023-02-25T02:40:24;2.17;;;0.80;;
67819;SDS011;54618;52.018;5.576;2023-02-25T02:48:17;4.72;;;1.05;;
67819;SDS011;54618;52.018;5.576;2023-02-25T02:50:50;4.20;;;1.00;;
67819;SDS011;54618;52.018;5.576;2023-02-25T02:53:37;4.47;;;1.00;;
67819;SDS011;54618;52.018;5.576;2023-02-25T02:56:11;3.83;;;0.90;;
67819;SDS011;54618;52.018;5.576;2023-02-25T02:58:43;2.72;;;0.82;;
67819;SDS011;54618;52.018;5.576;2023-02-25T03:01:16;4.38;;;1.13;;
67819;SDS011;54618;52.018;5.576;2023-02-25T03:03:49;4.72;;;1.15;;
67819;SDS011;54618;52.018;5.576;2023-02-25T03:06:24;2.55;;;0.70;;
67819;SDS011;54618;52.018;5.576;2023-02-25T03:08:54;2.60;;;0.77;;
67819;SDS011;54618;52.018;5.576;2023-02-25T03:11:25;3.65;;;1.00;;
67819;SDS011;54618;52.018;5.576;2023-02-25T03:13:50;2.95;;;1.08;;
67819;SDS011;54618;52.018;5.576;2023-02-25T03:16:19;3.38;;;0.80;;
67819;SDS011;54618;52.018;5.576;2023-02-25T03:18:53;2.03;;;0.90;;
67819;SDS011;54618;52.018;5.576;2023-02-25T03:21:35;2.70;;;0.80;;
67819;SDS011;54618;52.018;5.576;2023-02-25T03:24:04;1.92;;;0.80;;
67819;SDS011;54618;52.018;5.576;2023-02-25T03:26:34;2.60;;;0.60;;
67819;SDS011;54618;52.018;5.576;2023-02-25T03:29:01;2.92;;;0.98;;
67819;SDS011;54618;52.018;5.576;2023-02-25T03:31:32;2.83;;;1.00;;
67819;SDS011;54618;52.018;5.576;2023-02-25T03:34:02;2.80;;;0.80;;
67819;SDS011;54618;52.018;5.576;2023-02-25T03:36:38;2.65;;;0.75;;
67819;SDS011;54618;52.018;5.576;2023-02-25T03:39:15;1.77;;;0.70;;
67819;SDS011;54618;52.018;5.576;2023-02-25T03:41:47;2.15;;;0.80;;
67819;SDS011;54618;52.018;5.576;2023-02-25T03:46:47;2.38;;;0.80;;
67819;SDS011;54618;52.018;5.576;2023-02-25T03:49:18;1.95;;;0.80;;
67819;SDS011;54618;52.018;5.576;2023-02-25T03:51:51;4.18;;;0.82;;
67819;SDS011;54618;52.018;5.576;2023-02-25T03:54:19;3.63;;;0.88;;
67819;SDS011;54618;52.018;5.576;2023-02-25T03:56:49;1.90;;;0.70;;
67819;SDS011;54618;52.018;5.576;2023-02-25T03:59:16;2.67;;;0.90;;
67819;SDS011;54618;52.018;5.576;2023-02-25T04:01:43;2.58;;;0.88;;
67819;SDS011;54618;52.018;5.576;2023-02-25T04:04:12;2.35;;;0.77;;
67819;SDS011;54618;52.018;5.576;2023-02-25T04:06:38;3.60;;;0.80;;
67819;SDS011;54618;52.018;5.576;2023-02-25T04:09:03;3.92;;;1.02;;
67819;SDS011;54618;52.018;5.576;2023-02-25T04:11:30;3.05;;;0.90;;
67819;SDS011;54618;52.018;5.576;2023-02-25T04:13:56;2.80;;;0.70;;
67819;SDS011;54618;52.018;5.576;2023-02-25T04:16:21;2.63;;;0.77;;
67819;SDS011;54618;52.018;5.576;2023-02-25T04:18:47;2.53;;;0.80;;
67819;SDS011;54618;52.018;5.576;2023-02-25T04:23:50;2.60;;;0.70;;
67819;SDS011;54618;52.018;5.576;2023-02-25T04:26:16;2.50;;;0.73;;
67819;SDS011;54618;52.018;5.576;2023-02-25T04:28:41;2.33;;;0.80;;
67819;SDS011;54618;52.018;5.576;2023-02-25T04:31:07;2.08;;;0.85;;
67819;SDS011;54618;52.018;5.576;2023-02-25T04:33:32;3.10;;;0.90;;
67819;SDS011;54618;52.018;5.576;2023-02-25T04:35:58;2.75;;;1.00;;
67819;SDS011;54618;52.018;5.576;2023-02-25T04:38:23;2.30;;;0.85;;
67819;SDS011;54618;52.018;5.576;2023-02-25T04:40:52;2.95;;;0.80;;
67819;SDS011;54618;52.018;5.576;2023-02-25T04:43:17;2.63;;;0.75;;
67819;SDS011;54618;52.018;5.576;2023-02-25T04:45:43;3.95;;;0.90;;
67819;SDS011;54618;52.018;5.576;2023-02-25T04:48:08;3.25;;;0.90;;
67819;SDS011;54618;52.018;5.576;2023-02-25T04:50:34;2.53;;;0.90;;
67819;SDS011;54618;52.018;5.576;2023-02-25T04:53:00;2.95;;;0.90;;
67819;SDS011;54618;52.018;5.576;2023-02-25T04:55:28;2.58;;;0.80;;
67819;SDS011;54618;52.018;5.576;2023-02-25T04:57:54;3.25;;;0.90;;
67819;SDS011;54618;52.018;5.576;2023-02-25T05:00:20;2.95;;;0.90;;
67819;SDS011;54618;52.018;5.576;2023-02-25T05:05:16;3.25;;;0.80;;
67819;SDS011;54618;52.018;5.576;2023-02-25T05:07:42;3.28;;;0.88;;
67819;SDS011;54618;52.018;5.576;2023-02-25T05:10:10;2.85;;;0.82;;
67819;SDS011;54618;52.018;5.576;2023-02-25T05:12:37;2.28;;;0.80;;
67819;SDS011;54618;52.018;5.576;2023-02-25T05:15:03;3.15;;;0.73;;
67819;SDS011;54618;52.018;5.576;2023-02-25T05:17:30;2.80;;;0.90;;
67819;SDS011;54618;52.018;5.576;2023-02-25T05:19:56;3.05;;;0.80;;
67819;SDS011;54618;52.018;5.576;2023-02-25T05:22:22;2.03;;;0.68;;
67819;SDS011;54618;52.018;5.576;2023-02-25T05:24:48;2.03;;;0.80;;
67819;SDS011;54618;52.018;5.576;2023-02-25T05:27:14;2.47;;;0.70;;
67819;SDS011;54618;52.018;5.576;2023-02-25T05:29:39;2.58;;;0.77;;
67819;SDS011;54618;52.018;5.576;2023-02-25T05:32:05;2.08;;;0.90;;
67819;SDS011;54618;52.018;5.576;2023-02-25T05:34:31;3.15;;;0.73;;
67819;SDS011;54618;52.018;5.576;2023-02-25T05:36:57;3.47;;;1.10;;
67819;SDS011;54618;52.018;5.576;2023-02-25T05:39:22;2.92;;;0.90;;
67819;SDS011;54618;52.018;5.576;2023-02-25T05:41:48;2.30;;;0.73;;
67819;SDS011;54618;52.018;5.576;2023-02-25T05:44:15;3.08;;;1.02;;
67819;SDS011;54618;52.018;5.576;2023-02-25T05:46:41;2.53;;;0.80;;
67819;SDS011;54618;52.018;5.576;2023-02-25T05:49:07;4.97;;;0.93;;
67819;SDS011;54618;52.018;5.576;2023-02-25T05:51:33;2.63;;;0.73;;
67819;SDS011;54618;52.018;5.576;2023-02-25T05:53:58;2.42;;;0.80;;
67819;SDS011;54618;52.018;5.576;2023-02-25T05:56:24;2.45;;;0.70;;
67819;SDS011;54618;52.018;5.576;2023-02-25T05:58:51;2.53;;;0.80;;
67819;SDS011;54618;52.018;5.576;2023-02-25T06:01:19;2.50;;;0.80;;
67819;SDS011;54618;52.018;5.576;2023-02-25T06:03:48;2.95;;;0.80;;
67819;SDS011;54618;52.018;5.576;2023-02-25T06:06:15;2.20;;;0.80;;
67819;SDS011;54618;52.018;5.576;2023-02-25T06:08:46;3.90;;;0.93;;
67819;SDS011;54618;52.018;5.576;2023-02-25T06:11:16;2.15;;;0.70;;
67819;SDS011;54618;52.018;5.576;2023-02-25T06:13:43;2.65;;;0.68;;
67819;SDS011;54618;52.018;5.576;2023-02-25T06:16:10;3.00;;;0.82;;
67819;SDS011;54618;52.018;5.576;2023-02-25T06:18:36;2.63;;;0.68;;
67819;SDS011;54618;52.018;5.576;2023-02-25T06:21:02;3.42;;;1.00;;
67819;SDS011;54618;52.018;5.576;2023-02-25T06:23:30;2.33;;;0.80;;
67819;SDS011;54618;52.018;5.576;2023-02-25T06:25:56;4.35;;;0.90;;
67819;SDS011;54618;52.018;5.576;2023-02-25T06:28:22;3.35;;;0.88;;
67819;SDS011;54618;52.018;5.576;2023-02-25T06:30:48;2.63;;;0.73;;
67819;SDS011;54618;52.018;5.576;2023-02-25T06:33:13;2.67;;;0.80;;
67819;SDS011;54618;52.018;5.576;2023-02-25T06:35:39;2.95;;;0.80;;
67819;SDS011;54618;52.018;5.576;2023-02-25T06:38:04;3.00;;;0.90;;
67819;SDS011;54618;52.018;5.576;2023-02-25T06:40:30;3.05;;;0.80;;
67819;SDS011;54618;52.018;5.576;2023-02-25T06:42:57;1.65;;;0.70;;
67819;SDS011;54618;52.018;5.576;2023-02-25T06:45:23;2.33;;;0.70;;
67819;SDS011;54618;52.018;5.576;2023-02-25T06:47:49;2.17;;;0.52;;
67819;SDS011;54618;52.018;5.576;2023-02-25T06:50:14;2.42;;;0.60;;
67819;SDS011;54618;52.018;5.576;2023-02-25T06:52:41;2.30;;;0.80;;
67819;SDS011;54618;52.018;5.576;2023-02-25T06:55:08;2.83;;;0.90;;
67819;SDS011;54618;52.018;5.576;2023-02-25T06:57:33;3.22;;;0.68;;
67819;SDS011;54618;52.018;5.576;2023-02-25T06:59:59;3.22;;;0.80;;
67819;SDS011;54618;52.018;5.576;2023-02-25T07:02:25;2.42;;;0.82;;
67819;SDS011;54618;52.018;5.576;2023-02-25T07:04:53;2.92;;;0.80;;
67819;SDS011;54618;52.018;5.576;2023-02-25T07:07:20;1.45;;;0.50;;
67819;SDS011;54618;52.018;5.576;2023-02-25T07:09:46;2.65;;;0.60;;
67819;SDS011;54618;52.018;5.576;2023-02-25T07:12:12;2.42;;;0.82;;
67819;SDS011;54618;52.018;5.576;2023-02-25T07:14:38;2.88;;;0.70;;
67819;SDS011;54618;52.018;5.576;2023-02-25T07:17:03;2.58;;;0.93;;
67819;SDS011;54618;52.018;5.576;2023-02-25T07:19:29;3.72;;;0.90;;
67819;SDS011;54618;52.018;5.576;2023-02-25T07:21:55;2.47;;;0.82;;
67819;SDS011;54618;52.018;5.576;2023-02-25T07:24:22;3.63;;;0.80;;
67819;SDS011;54618;52.018;5.576;2023-02-25T07:26:48;3.83;;;0.85;;
67819;SDS011;54618;52.018;5.576;2023-02-25T07:29:14;2.83;;;0.90;;
67819;SDS011;54618;52.018;5.576;2023-02-25T07:31:39;3.03;;;0.90;;
67819;SDS011;54618;52.018;5.576;2023-02-25T07:34:05;2.78;;;0.80;;
67819;SDS011;54618;52.018;5.576;2023-02-25T07:36:31;1.60;;;0.60;;
67819;SDS011;54618;52.018;5.576;2023-02-25T07:38:59;1.80;;;0.60;;
67819;SDS011;54618;52.018;5.576;2023-02-25T07:41:25;2.47;;;0.82;;
67819;SDS011;54618;52.018;5.576;2023-02-25T07:43:52;2.47;;;0.70;;
67819;SDS011;54618;52.018;5.576;2023-02-25T07:46:18;2.22;;;0.70;;
67819;SDS011;54618;52.018;5.576;2023-02-25T07:48:43;2.42;;;0.63;;
67819;SDS011;54618;52.018;5.576;2023-02-25T07:51:13;1.63;;;0.55;;
67819;SDS011;54618;52.018;5.576;2023-02-25T07:53:42;1.42;;;0.57;;
67819;SDS011;54618;52.018;5.576;2023-02-25T07:56:08;1.58;;;0.70;;
67819;SDS011;54618;52.018;5.576;2023-02-25T07:58:34;2.53;;;0.80;;
67819;SDS011;54618;52.018;5.576;2023-02-25T08:01:00;2.63;;;0.77;;
67819;SDS011;54618;52.018;5.576;2023-02-25T08:03:31;1.63;;;0.60;;
67819;SDS011;54618;52.018;5.576;2023-02-25T08:05:56;2.63;;;0.70;;
67819;SDS011;54618;52.018;5.576;2023-02-25T08:08:23;2.28;;;0.82;;
67819;SDS011;54618;52.018;5.576;2023-02-25T08:10:48;2.55;;;0.82;;
67819;SDS011;54618;52.018;5.576;2023-02-25T08:13:14;3.10;;;0.93;;
67819;SDS011;54618;52.018;5.576;2023-02-25T08:15:40;3.15;;;0.85;;
67819;SDS011;54618;52.018;5.576;2023-02-25T08:18:07;2.10;;;0.60;;
67819;SDS011;54618;52.018;5.576;2023-02-25T08:20:33;1.67;;;0.63;;
67819;SDS011;54618;52.018;5.576;2023-02-25T08:22:58;2.38;;;0.70;;
67819;SDS011;54618;52.018;5.576;2023-02-25T08:25:24;1.40;;;0.52;;
67819;SDS011;54618;52.018;5.576;2023-02-25T08:27:50;3.05;;;0.80;;
67819;SDS011;54618;52.018;5.576;2023-02-25T08:30:17;2.65;;;0.60;;
67819;SDS011;54618;52.018;5.576;2023-02-25T08:32:45;2.63;;;0.77;;
67819;SDS011;54618;52.018;5.576;2023-02-25T08:35:11;2.88;;;0.88;;
67819;SDS011;54618;52.018;5.576;2023-02-25T08:37:37;1.83;;;0.60;;
67819;SDS011;54618;52.018;5.576;2023-02-25T08:40:02;1.77;;;0.40;;
67819;SDS011;54618;52.018;5.576;2023-02-25T08:44:58;1.77;;;0.60;;
67819;SDS011;54618;52.018;5.576;2023-02-25T08:47:24;2.42;;;0.63;;
67819;SDS011;54618;52.018;5.576;2023-02-25T08:49:49;2.92;;;0.77;;
67819;SDS011;54618;52.018;5.576;2023-02-25T08:52:16;3.08;;;0.80;;
67819;SDS011;54618;52.018;5.576;2023-02-25T08:54:42;1.88;;;0.60;;
67819;SDS011;54618;52.018;5.576;2023-02-25T08:57:07;2.60;;;0.70;;
67819;SDS011;54618;52.018;5.576;2023-02-25T08:59:33;1.55;;;0.60;;
67819;SDS011;54618;52.018;5.576;2023-02-25T09:02:00;2.58;;;0.80;;
67819;SDS011;54618;52.018;5.576;2023-02-25T09:04:27;1.80;;;0.60;;
67819;SDS011;54618;52.018;5.576;2023-02-25T09:06:52;2.28;;;0.80;;
67819;SDS011;54618;52.018;5.576;2023-02-25T09:09:19;2.78;;;0.70;;
67819;SDS011;54618;52.018;5.576;2023-02-25T09:11:45;2.25;;;0.65;;
67819;SDS011;54618;52.018;5.576;2023-02-25T09:14:12;1.80;;;0.65;;
67819;SDS011;54618;52.018;5.576;2023-02-25T09:16:38;2.20;;;0.77;;
67819;SDS011;54618;52.018;5.576;2023-02-25T09:19:04;2.90;;;0.98;;
67819;SDS011;54618;52.018;5.576;2023-02-25T09:21:29;2.28;;;0.70;;
67819;SDS011;54618;52.018;5.576;2023-02-25T09:23:55;1.92;;;0.60;;
67819;SDS011;54618;52.018;5.576;2023-02-25T09:26:22;3.05;;;0.70;;
67819;SDS011;54618;52.018;5.576;2023-02-25T09:28:48;2.35;;;0.73;;
67819;SDS011;54618;52.018;5.576;2023-02-25T09:31:14;3.40;;;0.80;;
67819;SDS011;54618;52.018;5.576;2023-02-25T09:33:40;2.58;;;0.70;;
67819;SDS011;54618;52.018;5.576;2023-02-25T09:36:16;1.98;;;0.70;;
67819;SDS011;54618;52.018;5.576;2023-02-25T09:38:43;1.85;;;0.60;;
67819;SDS011;54618;52.018;5.576;2023-02-25T09:41:16;1.90;;;0.70;;
67819;SDS011;54618;52.018;5.576;2023-02-25T09:43:48;1.85;;;0.60;;
67819;SDS011;54618;52.018;5.576;2023-02-25T09:46:26;1.92;;;0.60;;
67819;SDS011;54618;52.018;5.576;2023-02-25T09:48:56;2.13;;;0.70;;
67819;SDS011;54618;52.018;5.576;2023-02-25T09:51:35;1.75;;;0.60;;
67819;SDS011;54618;52.018;5.576;2023-02-25T09:54:10;2.22;;;0.65;;
67819;SDS011;54618;52.018;5.576;2023-02-25T09:56:46;1.58;;;0.50;;
67819;SDS011;54618;52.018;5.576;2023-02-25T09:59:14;3.30;;;1.00;;
67819;SDS011;54618;52.018;5.576;2023-02-25T10:01:44;2.67;;;0.80;;
67819;SDS011;54618;52.018;5.576;2023-02-25T10:06:48;3.30;;;0.90;;
67819;SDS011;54618;52.018;5.576;2023-02-25T10:12:05;2.40;;;0.77;;
67819;SDS011;54618;52.018;5.576;2023-02-25T10:14:47;1.60;;;0.45;;
67819;SDS011;54618;52.018;5.576;2023-02-25T10:22:55;2.60;;;0.73;;
67819;SDS011;54618;52.018;5.576;2023-02-25T10:25:27;2.25;;;0.70;;
67819;SDS011;54618;52.018;5.576;2023-02-25T10:28:00;1.13;;;0.52;;
67819;SDS011;54618;52.018;5.576;2023-02-25T10:33:23;1.92;;;0.60;;
67819;SDS011;54618;52.018;5.576;2023-02-25T10:35:51;3.30;;;0.70;;
67819;SDS011;54618;52.018;5.576;2023-02-25T10:38:23;4.18;;;0.70;;
67819;SDS011;54618;52.018;5.576;2023-02-25T10:40:49;1.85;;;0.57;;
67819;SDS011;54618;52.018;5.576;2023-02-25T10:45:48;2.42;;;0.63;;
67819;SDS011;54618;52.018;5.576;2023-02-25T10:48:23;1.63;;;0.55;;
67819;SDS011;54618;52.018;5.576;2023-02-25T10:53:38;2.65;;;0.60;;
67819;SDS011;54618;52.018;5.576;2023-02-25T10:56:05;1.33;;;0.50;;
67819;SDS011;54618;52.018;5.576;2023-02-25T10:58:44;4.03;;;0.52;;
67819;SDS011;54618;52.018;5.576;2023-02-25T11:01:24;4.53;;;0.75;;
67819;SDS011;54618;52.018;5.576;2023-02-25T11:03:59;1.60;;;0.52;;
67819;SDS011;54618;52.018;5.576;2023-02-25T11:06:30;2.60;;;0.68;;
67819;SDS011;54618;52.018;5.576;2023-02-25T11:09:01;2.72;;;0.57;;
67819;SDS011;54618;52.018;5.576;2023-02-25T11:11:30;2.00;;;0.50;;
67819;SDS011;54618;52.018;5.576;2023-02-25T11:14:02;1.33;;;0.60;;
67819;SDS011;54618;52.018;5.576;2023-02-25T11:16:42;2.75;;;0.60;;
67819;SDS011;54618;52.018;5.576;2023-02-25T11:19:16;1.88;;;0.50;;
67819;SDS011;54618;52.018;5.576;2023-02-25T11:21:48;1.73;;;0.63;;
67819;SDS011;54618;52.018;5.576;2023-02-25T11:24:16;1.67;;;0.55;;
67819;SDS011;54618;52.018;5.576;2023-02-25T11:26:51;1.52;;;0.65;;
67819;SDS011;54618;52.018;5.576;2023-02-25T11:29:21;2.30;;;0.60;;
67819;SDS011;54618;52.018;5.576;2023-02-25T11:34:28;2.28;;;0.65;;
67819;SDS011;54618;52.018;5.576;2023-02-25T11:36:55;3.22;;;0.70;;
67819;SDS011;54618;52.018;5.576;2023-02-25T11:39:50;4.97;;;0.60;;
67819;SDS011;54618;52.018;5.576;2023-02-25T11:42:22;1.58;;;0.57;;
67819;SDS011;54618;52.018;5.576;2023-02-25T11:44:57;2.88;;;0.68;;
67819;SDS011;54618;52.018;5.576;2023-02-25T11:47:31;2.67;;;0.80;;
67819;SDS011;54618;52.018;5.576;2023-02-25T11:50:05;2.33;;;0.70;;
67819;SDS011;54618;52.018;5.576;2023-02-25T11:58:04;2.05;;;0.50;;
67819;SDS011;54618;52.018;5.576;2023-02-25T12:00:54;1.13;;;0.45;;
67819;SDS011;54618;52.018;5.576;2023-02-25T12:06:12;1.48;;;0.52;;
67819;SDS011;54618;52.018;5.576;2023-02-25T12:09:03;2.30;;;0.52;;
67819;SDS011;54618;52.018;5.576;2023-02-25T12:23:12;3.88;;;0.70;;
67819;SDS011;54618;52.018;5.576;2023-02-25T12:26:03;2.88;;;0.60;;
67819;SDS011;54618;52.018;5.576;2023-02-25T12:34:35;1.63;;;0.60;;
67819;SDS011;54618;52.018;5.576;2023-02-25T12:37:35;3.03;;;0.40;;
67819;SDS011;54618;52.018;5.576;2023-02-25T12:40:23;1.75;;;0.50;;
67819;SDS011;54618;52.018;5.576;2023-02-25T12:43:25;4.78;;;0.85;;
67819;SDS011;54618;52.018;5.576;2023-02-25T12:46:04;1.63;;;0.52;;
67819;SDS011;54618;52.018;5.576;2023-02-25T12:48:43;3.03;;;0.60;;
67819;SDS011;54618;52.018;5.576;2023-02-25T12:54:58;2.08;;;0.50;;
67819;SDS011;54618;52.018;5.576;2023-02-25T13:03:06;1.17;;;0.50;;
67819;SDS011;54618;52.018;5.576;2023-02-25T13:17:15;3.95;;;0.55;;
67819;SDS011;54618;52.018;5.576;2023-02-25T13:19:59;1.88;;;0.63;;
67819;SDS011;54618;52.018;5.576;2023-02-25T13:25:50;2.60;;;0.80;;
67819;SDS011;54618;52.018;5.576;2023-02-25T13:31:08;3.22;;;0.60;;
67819;SDS011;54618;52.018;5.576;2023-02-25T13:36:31;2.60;;;0.80;;
67819;SDS011;54618;52.018;5.576;2023-02-25T13:44:40;2.28;;;0.55;;
67819;SDS011;54618;52.018;5.576;2023-02-25T13:53:35;1.58;;;0.50;;
67819;SDS011;54618;52.018;5.576;2023-02-25T13:56:17;3.22;;;0.68;;
67819;SDS011;54618;52.018;5.576;2023-02-25T13:59:16;2.40;;;0.60;;
67819;SDS011;54618;52.018;5.576;2023-02-25T14:01:49;1.90;;;0.60;;
67819;SDS011;54618;52.018;5.576;2023-02-25T14:04:43;2.55;;;0.63;;
67819;SDS011;54618;52.018;5.576;2023-02-25T14:10:30;1.88;;;0.60;;
67819;SDS011;54618;52.018;5.576;2023-02-25T14:16:14;1.63;;;0.40;;
67819;SDS011;54618;52.018;5.576;2023-02-25T14:19:11;2.17;;;0.50;;
67819;SDS011;54618;52.018;5.576;2023-02-25T14:27:02;2.00;;;0.50;;
67819;SDS011;54618;52.018;5.576;2023-02-25T14:29:58;2.05;;;0.60;;
67819;SDS011;54618;52.018;5.576;2023-02-25T14:32:29;2.97;;;0.60;;
67819;SDS011;54618;52.018;5.576;2023-02-25T14:35:14;2.30;;;0.57;;
67819;SDS011;54618;52.018;5.576;2023-02-25T14:51:33;1.63;;;0.50;;
67819;SDS011;54618;52.018;5.576;2023-02-25T15:03:28;1.58;;;0.50;;
67819;SDS011;54618;52.018;5.576;2023-02-25T15:09:37;1.95;;;0.50;;
67819;SDS011;54618;52.018;5.576;2023-02-25T15:12:23;1.35;;;0.60;;
67819;SDS011;54618;52.018;5.576;2023-02-25T15:20:41;3.00;;;0.77;;
67819;SDS011;54618;52.018;5.576;2023-02-25T15:28:02;1.35;;;0.60;;
67819;SDS011;54618;52.018;5.576;2023-02-25T15:33:26;1.60;;;0.47;;
67819;SDS011;54618;52.018;5.576;2023-02-25T15:41:36;1.75;;;0.55;;
67819;SDS011;54618;52.018;5.576;2023-02-25T15:49:08;3.03;;;0.90;;
67819;SDS011;54618;52.018;5.576;2023-02-25T15:51:49;4.25;;;0.70;;
67819;SDS011;54618;52.018;5.576;2023-02-25T15:56:52;2.53;;;0.90;;
67819;SDS011;54618;52.018;5.576;2023-02-25T16:05:04;5.25;;;0.98;;
67819;SDS011;54618;52.018;5.576;2023-02-25T16:07:46;4.88;;;0.80;;
67819;SDS011;54618;52.018;5.576;2023-02-25T16:12:43;2.05;;;0.75;;
67819;SDS011;54618;52.018;5.576;2023-02-25T16:15:14;3.17;;;0.90;;
67819;SDS011;54618;52.018;5.576;2023-02-25T16:17:47;3.28;;;0.90;;
67819;SDS011;54618;52.018;5.576;2023-02-25T16:20:32;3.05;;;1.00;;
67819;SDS011;54618;52.018;5.576;2023-02-25T16:23:10;4.45;;;1.25;;
67819;SDS011;54618;52.018;5.576;2023-02-25T16:31:32;4.15;;;1.33;;
67819;SDS011;54618;52.018;5.576;2023-02-25T16:34:08;4.25;;;1.20;;
67819;SDS011;54618;52.018;5.576;2023-02-25T16:36:57;3.30;;;1.23;;
67819;SDS011;54618;52.018;5.576;2023-02-25T16:39:26;3.38;;;1.20;;
67819;SDS011;54618;52.018;5.576;2023-02-25T16:41:53;3.13;;;1.20;;
67819;SDS011;54618;52.018;5.576;2023-02-25T16:44:20;6.68;;;1.58;;
67819;SDS011;54618;52.018;5.576;2023-02-25T16:46:52;5.07;;;1.33;;
67819;SDS011;54618;52.018;5.576;2023-02-25T16:49:19;5.88;;;1.40;;
67819;SDS011;54618;52.018;5.576;2023-02-25T16:51:52;5.90;;;1.52;;
67819;SDS011;54618;52.018;5.576;2023-02-25T16:54:23;3.90;;;1.30;;
67819;SDS011;54618;52.018;5.576;2023-02-25T16:56:56;6.78;;;1.15;;
67819;SDS011;54618;52.018;5.576;2023-02-25T16:59:24;5.50;;;1.30;;
67819;SDS011;54618;52.018;5.576;2023-02-25T17:01:56;5.95;;;1.25;;
67819;SDS011;54618;52.018;5.576;2023-02-25T17:04:32;4.47;;;1.60;;
67819;SDS011;54618;52.018;5.576;2023-02-25T17:09:55;4.28;;;1.27;;
67819;SDS011;54618;52.018;5.576;2023-02-25T17:12:29;8.18;;;1.23;;
67819;SDS011;54618;52.018;5.576;2023-02-25T17:14:59;5.63;;;1.40;;
67819;SDS011;54618;52.018;5.576;2023-02-25T17:17:27;4.90;;;1.30;;
67819;SDS011;54618;52.018;5.576;2023-02-25T17:20:02;3.00;;;1.20;;
67819;SDS011;54618;52.018;5.576;2023-02-25T17:22:30;3.80;;;1.40;;
67819;SDS011;54618;52.018;5.576;2023-02-25T17:24:57;4.72;;;1.15;;
67819;SDS011;54618;52.018;5.576;2023-02-25T17:27:24;7.38;;;1.35;;
67819;SDS011;54618;52.018;5.576;2023-02-25T17:29:50;3.33;;;1.00;;
67819;SDS011;54618;52.018;5.576;2023-02-25T17:32:20;3.83;;;1.30;;
67819;SDS011;54618;52.018;5.576;2023-02-25T17:34:52;2.92;;;1.00;;
67819;SDS011;54618;52.018;5.576;2023-02-25T17:37:20;3.67;;;1.10;;
67819;SDS011;54618;52.018;5.576;2023-02-25T17:39:50;2.83;;;0.90;;
67819;SDS011;54618;52.018;5.576;2023-02-25T17:42:35;4.00;;;1.20;;
67819;SDS011;54618;52.018;5.576;2023-02-25T17:45:04;7.20;;;1.27;;
67819;SDS011;54618;52.018;5.576;2023-02-25T17:47:33;3.85;;;1.40;;
67819;SDS011;54618;52.018;5.576;2023-02-25T17:50:10;4.82;;;1.10;;
67819;SDS011;54618;52.018;5.576;2023-02-25T17:52:46;3.83;;;1.00;;
67819;SDS011;54618;52.018;5.576;2023-02-25T17:55:23;4.00;;;1.27;;
67819;SDS011;54618;52.018;5.576;2023-02-25T17:57:56;3.15;;;1.05;;
67819;SDS011;54618;52.018;5.576;2023-02-25T18:00:28;4.63;;;1.20;;
67819;SDS011;54618;52.018;5.576;2023-02-25T18:03:13;5.10;;;1.23;;
67819;SDS011;54618;52.018;5.576;2023-02-25T18:05:50;4.05;;;1.20;;
67819;SDS011;54618;52.018;5.576;2023-02-25T18:08:21;3.45;;;1.00;;
67819;SDS011;54618;52.018;5.576;2023-02-25T18:11:17;3.25;;;0.98;;
67819;SDS011;54618;52.018;5.576;2023-02-25T18:13:48;4.88;;;1.40;;
67819;SDS011;54618;52.018;5.576;2023-02-25T18:16:31;2.92;;;1.00;;
67819;SDS011;54618;52.018;5.576;2023-02-25T18:19:06;2.55;;;0.90;;
67819;SDS011;54618;52.018;5.576;2023-02-25T18:21:38;2.20;;;0.95;;
67819;SDS011;54618;52.018;5.576;2023-02-25T18:24:07;3.47;;;1.17;;
67819;SDS011;54618;52.018;5.576;2023-02-25T18:26:33;3.10;;;0.95;;
67819;SDS011;54618;52.018;5.576;2023-02-25T18:28:59;3.83;;;1.10;;